Snav Lazio — IBUH — position and weather

sailwx.info

Track history (hours):
 
Tides and Currents Weather Stations Pressure Air Temp Water Temp Dewpoint Dewpoint Depression Visibility Wind Speed Wind Dir Waves Ship Positions

Snav Lazio

Last reported at 2016-Feb-09 20:33 UTC. Time now 2016-Feb-09 20:36 UTC.
Position N 38°26' E 013°21'.

Length 162 m; draft 6 m.

Type: Passenger vessel. MMSI: 247163100.

Date/timePositionNaut miles runAvg speedWind from/ knotsBaromVisibWave heightAir tempDewpointWater temp
2016-Feb-09 20:33N 38°26' E 013°21'1616.2
2016-Feb-09 19:33N 38°10' E 013°25'3 3.2
2016-Feb-09 18:31N 38°08' E 013°22'0 0.0
2016-Feb-09 17:31N 38°08' E 013°22'0 0.0
2016-Feb-09 16:31N 38°08' E 013°22'0 0.0
2016-Feb-09 15:31N 38°08' E 013°22'0 0.0
2016-Feb-09 14:31N 38°08' E 013°22'0 0.0
2016-Feb-09 13:31N 38°08' E 013°22'0 0.0
2016-Feb-09 12:31N 38°08' E 013°22'0 0.0
2016-Feb-09 11:31N 38°08' E 013°22'0 0.0
2016-Feb-09 10:31N 38°08' E 013°22'0 0.0
2016-Feb-09 09:31N 38°08' E 013°22'0 0.0
2016-Feb-09 08:31N 38°08' E 013°22'0 0.0
2016-Feb-09 07:31N 38°08' E 013°22'0 0.0
2016-Feb-09 06:31N 38°08' E 013°22'8 7.9
2016-Feb-09 05:33N 38°15' E 013°27'1615.5
2016-Feb-09 04:33N 38°30' E 013°31'1515.4
2016-Feb-09 03:33N 38°45' E 013°35'129 3.9
2016-Feb-07 18:28N 40°50' E 014°16'0 0.0
2016-Feb-07 17:29N 40°50' E 014°16'0 0.0
2016-Feb-07 16:17N 40°50' E 014°16'0 0.0
2016-Feb-07 15:28N 40°50' E 014°16'0 0.0
2016-Feb-07 14:22N 40°50' E 014°16'132 7.7
2016-Feb-06 21:21N 38°41' E 013°44'1518.5
2016-Feb-06 20:33N 38°28' E 013°36'1818.2
2016-Feb-06 19:33N 38°11' E 013°27'5 4.8
2016-Feb-06 18:32N 38°08' E 013°22'0 0.0
2016-Feb-06 17:32N 38°08' E 013°22'0 0.0
2016-Feb-06 16:32N 38°08' E 013°22'0 0.0
2016-Feb-06 15:32N 38°08' E 013°22'0 0.0
2016-Feb-06 14:32N 38°08' E 013°22'0 0.0
2016-Feb-06 13:32N 38°08' E 013°22'0 0.0
2016-Feb-06 12:32N 38°08' E 013°22'0 0.0
2016-Feb-06 11:32N 38°08' E 013°22'0 0.0
2016-Feb-06 10:32N 38°08' E 013°22'0 0.0
2016-Feb-06 09:32N 38°08' E 013°22'0 0.0
2016-Feb-06 08:32N 38°08' E 013°22'0 0.0
2016-Feb-06 07:32N 38°08' E 013°22'0 0.0
2016-Feb-06 06:32N 38°08' E 013°22'0 0.1
2016-Feb-06 05:33N 38°08' E 013°22'10 9.5
2016-Feb-06 04:33N 38°17' E 013°26'1716.8
2016-Feb-06 03:34N 38°33' E 013°31'1716.9
2016-Feb-06 02:33N 38°50' E 013°36'14 0.5
2016-Feb-04 21:29N 38°36' E 013°38'1313.9
2016-Feb-04 20:34N 38°24' E 013°33'1414.1
2016-Feb-04 19:33N 38°11' E 013°26'4 4.4
2016-Feb-04 18:33N 38°08' E 013°22'0 0.0
2016-Feb-04 17:33N 38°08' E 013°22'0 0.0
2016-Feb-04 16:33N 38°08' E 013°22'0 0.0
2016-Feb-04 15:33N 38°08' E 013°22'0 0.0
2016-Feb-04 14:33N 38°08' E 013°22'0 0.0
2016-Feb-04 13:33N 38°08' E 013°22'0 0.0
2016-Feb-04 12:33N 38°08' E 013°22'0 0.0
2016-Feb-04 11:33N 38°08' E 013°22'0 0.0
2016-Feb-04 10:33N 38°08' E 013°22'0 0.0
2016-Feb-04 09:33N 38°08' E 013°22'0 0.0
2016-Feb-04 08:33N 38°08' E 013°22'0 0.0
2016-Feb-04 07:33N 38°08' E 013°22'0 0.0
2016-Feb-04 06:33N 38°08' E 013°22'0 0.0
2016-Feb-04 05:33N 38°08' E 013°22'1211.8
2016-Feb-04 04:33N 38°20' E 013°25'1817.8
2016-Feb-04 03:33N 38°37' E 013°26'13810.4
2016-Feb-03 14:17N 40°50' E 014°16'0 0.0
2016-Feb-03 13:29N 40°50' E 014°16'0 0.0
2016-Feb-03 12:17N 40°50' E 014°16'138 9.1
2016-Feb-02 21:08N 38°37' E 013°33'1018.0
2016-Feb-02 20:33N 38°27' E 013°30'1818.0
2016-Feb-02 19:34N 38°09' E 013°26'3 2.9
2016-Feb-02 18:28N 38°08' E 013°22'0 0.0
2016-Feb-02 17:31N 38°08' E 013°22'0 0.0
2016-Feb-02 16:31N 38°08' E 013°22'0 0.0
2016-Feb-02 15:31N 38°08' E 013°22'0 0.0
2016-Feb-02 14:31N 38°08' E 013°22'0 0.0
2016-Feb-02 13:31N 38°08' E 013°22'0 0.0
2016-Feb-02 12:31N 38°08' E 013°22'0 0.0
2016-Feb-02 11:31N 38°08' E 013°22'0 0.0
2016-Feb-02 10:31N 38°08' E 013°22'0 0.0
2016-Feb-02 09:33N 38°08' E 013°22'0 0.0
2016-Feb-02 08:33N 38°08' E 013°22'0 0.0
2016-Feb-02 07:33N 38°08' E 013°22'0 0.0
2016-Feb-02 06:33N 38°08' E 013°22'0 0.3
2016-Feb-02 05:33N 38°08' E 013°22'1414.2
2016-Feb-02 04:34N 38°21' E 013°28'1717.4
2016-Feb-02 03:34N 38°38' E 013°33'1717.4
2016-Feb-02 02:34N 38°55' E 013°37'1717.0
2016-Feb-02 01:34N 39°12' E 013°42'1817.0
2016-Feb-02 00:30N 39°29' E 013°48'4217.3
2016-Feb-01 22:05N 40°10' E 014°00'917.4
2016-Feb-01 21:33N 40°19' E 014°03'1817.5
2016-Feb-01 20:33N 40°36' E 014°09'130 2.7
2016-Jan-30 20:34N 38°29' E 013°31'  
Track history (hours):
 
Tides and Currents Weather Stations Pressure Air Temp Water Temp Dewpoint Dewpoint Depression Visibility Wind Speed Wind Dir Waves Ship Positions

Snav Lazio

Last reported at 2016-Feb-09 20:33 UTC. Time now 2016-Feb-09 20:36 UTC.
Position N 38°26' E 013°21'.

Length 162 m; draft 6 m.

Type: Passenger vessel. MMSI: 247163100.

Date/timePositionNaut miles runAvg speedWind from/ knotsBaromVisibWave heightAir tempDewpointWater temp
2016-Feb-09 20:33N 38°26' E 013°21'1616.2
2016-Feb-09 19:33N 38°10' E 013°25'3 3.2
2016-Feb-09 18:31N 38°08' E 013°22'0 0.0
2016-Feb-09 17:31N 38°08' E 013°22'0 0.0
2016-Feb-09 16:31N 38°08' E 013°22'0 0.0
2016-Feb-09 15:31N 38°08' E 013°22'0 0.0
2016-Feb-09 14:31N 38°08' E 013°22'0 0.0
2016-Feb-09 13:31N 38°08' E 013°22'0 0.0
2016-Feb-09 12:31N 38°08' E 013°22'0 0.0
2016-Feb-09 11:31N 38°08' E 013°22'0 0.0
2016-Feb-09 10:31N 38°08' E 013°22'0 0.0
2016-Feb-09 09:31N 38°08' E 013°22'0 0.0
2016-Feb-09 08:31N 38°08' E 013°22'0 0.0
2016-Feb-09 07:31N 38°08' E 013°22'0 0.0
2016-Feb-09 06:31N 38°08' E 013°22'8 7.9
2016-Feb-09 05:33N 38°15' E 013°27'1615.5
2016-Feb-09 04:33N 38°30' E 013°31'1515.4
2016-Feb-09 03:33N 38°45' E 013°35'129 3.9
2016-Feb-07 18:28N 40°50' E 014°16'0 0.0
2016-Feb-07 17:29N 40°50' E 014°16'0 0.0
2016-Feb-07 16:17N 40°50' E 014°16'0 0.0
2016-Feb-07 15:28N 40°50' E 014°16'0 0.0
2016-Feb-07 14:22N 40°50' E 014°16'132 7.7
2016-Feb-06 21:21N 38°41' E 013°44'1518.5
2016-Feb-06 20:33N 38°28' E 013°36'1818.2
2016-Feb-06 19:33N 38°11' E 013°27'5 4.8
2016-Feb-06 18:32N 38°08' E 013°22'0 0.0
2016-Feb-06 17:32N 38°08' E 013°22'0 0.0
2016-Feb-06 16:32N 38°08' E 013°22'0 0.0
2016-Feb-06 15:32N 38°08' E 013°22'0 0.0
2016-Feb-06 14:32N 38°08' E 013°22'0 0.0
2016-Feb-06 13:32N 38°08' E 013°22'0 0.0
2016-Feb-06 12:32N 38°08' E 013°22'0 0.0
2016-Feb-06 11:32N 38°08' E 013°22'0 0.0
2016-Feb-06 10:32N 38°08' E 013°22'0 0.0
2016-Feb-06 09:32N 38°08' E 013°22'0 0.0
2016-Feb-06 08:32N 38°08' E 013°22'0 0.0
2016-Feb-06 07:32N 38°08' E 013°22'0 0.0
2016-Feb-06 06:32N 38°08' E 013°22'0 0.1
2016-Feb-06 05:33N 38°08' E 013°22'10 9.5
2016-Feb-06 04:33N 38°17' E 013°26'1716.8
2016-Feb-06 03:34N 38°33' E 013°31'1716.9
2016-Feb-06 02:33N 38°50' E 013°36'14 0.5
2016-Feb-04 21:29N 38°36' E 013°38'1313.9
2016-Feb-04 20:34N 38°24' E 013°33'1414.1
2016-Feb-04 19:33N 38°11' E 013°26'4 4.4
2016-Feb-04 18:33N 38°08' E 013°22'0 0.0
2016-Feb-04 17:33N 38°08' E 013°22'0 0.0
2016-Feb-04 16:33N 38°08' E 013°22'0 0.0
2016-Feb-04 15:33N 38°08' E 013°22'0 0.0
2016-Feb-04 14:33N 38°08' E 013°22'0 0.0
2016-Feb-04 13:33N 38°08' E 013°22'0 0.0
2016-Feb-04 12:33N 38°08' E 013°22'0 0.0
2016-Feb-04 11:33N 38°08' E 013°22'0 0.0
2016-Feb-04 10:33N 38°08' E 013°22'0 0.0
2016-Feb-04 09:33N 38°08' E 013°22'0 0.0
2016-Feb-04 08:33N 38°08' E 013°22'0 0.0
2016-Feb-04 07:33N 38°08' E 013°22'0 0.0
2016-Feb-04 06:33N 38°08' E 013°22'0 0.0
2016-Feb-04 05:33N 38°08' E 013°22'1211.8
2016-Feb-04 04:33N 38°20' E 013°25'1817.8
2016-Feb-04 03:33N 38°37' E 013°26'13810.4
2016-Feb-03 14:17N 40°50' E 014°16'0 0.0
2016-Feb-03 13:29N 40°50' E 014°16'0 0.0
2016-Feb-03 12:17N 40°50' E 014°16'138 9.1
2016-Feb-02 21:08N 38°37' E 013°33'1018.0
2016-Feb-02 20:33N 38°27' E 013°30'1818.0
2016-Feb-02 19:34N 38°09' E 013°26'3 2.9
2016-Feb-02 18:28N 38°08' E 013°22'0 0.0
2016-Feb-02 17:31N 38°08' E 013°22'0 0.0
2016-Feb-02 16:31N 38°08' E 013°22'0 0.0
2016-Feb-02 15:31N 38°08' E 013°22'0 0.0
2016-Feb-02 14:31N 38°08' E 013°22'0 0.0
2016-Feb-02 13:31N 38°08' E 013°22'0 0.0
2016-Feb-02 12:31N 38°08' E 013°22'0 0.0
2016-Feb-02 11:31N 38°08' E 013°22'0 0.0
2016-Feb-02 10:31N 38°08' E 013°22'0 0.0
2016-Feb-02 09:33N 38°08' E 013°22'0 0.0
2016-Feb-02 08:33N 38°08' E 013°22'0 0.0
2016-Feb-02 07:33N 38°08' E 013°22'0 0.0
2016-Feb-02 06:33N 38°08' E 013°22'0 0.3
2016-Feb-02 05:33N 38°08' E 013°22'1414.2
2016-Feb-02 04:34N 38°21' E 013°28'1717.4
2016-Feb-02 03:34N 38°38' E 013°33'1717.4
2016-Feb-02 02:34N 38°55' E 013°37'1717.0
2016-Feb-02 01:34N 39°12' E 013°42'1817.0
2016-Feb-02 00:30N 39°29' E 013°48'4217.3
2016-Feb-01 22:05N 40°10' E 014°00'917.4
2016-Feb-01 21:33N 40°19' E 014°03'1817.5
2016-Feb-01 20:33N 40°36' E 014°09'130 2.7
2016-Jan-30 20:34N 38°29' E 013°31'  

Dump ship's entire track history